Time;durP1;ratioP1;P1;durP2;ratioP2;P2;SDS_P1;SDS_P2;PMS_P1;PMS_P2;Temp;Humidity;BMP_temperature;BMP_pressure;BME280_temperature;BME280_humidity;BME280_pressure;Samples;Min_cycle;Max_cycle;Signal;HPM_P1;HPM_P2
2022/10/25 00:00:14;;;;;;;6.27;3.50;;;16.10;99.90;;;;;;5040228;28;20212;-76
2022/10/25 00:02:41;;;;;;;5.90;2.77;;;16.10;99.90;;;;;;5039559;28;20282;-76
2022/10/25 00:05:11;;;;;;;6.30;3.67;;;16.10;99.90;;;;;;5040156;28;20220;-75
2022/10/25 00:07:39;;;;;;;4.43;3.53;;;16.10;99.90;;;;;;5043492;28;20253;-76
2022/10/25 00:10:07;;;;;;;3.87;2.93;;;16.10;99.90;;;;;;5031383;28;20260;-76
2022/10/25 00:12:34;;;;;;;4.83;2.90;;;16.10;99.90;;;;;;5043474;28;20569;-75
2022/10/25 00:15:04;;;;;;;3.30;2.87;;;16.20;99.90;;;;;;5038410;28;20191;-77
2022/10/25 00:17:31;;;;;;;5.00;3.00;;;16.20;99.90;;;;;;5037910;28;20200;-77
2022/10/25 00:19:58;;;;;;;3.17;2.87;;;16.20;99.90;;;;;;5037472;28;20212;-76
2022/10/25 00:22:28;;;;;;;3.97;3.30;;;16.20;99.90;;;;;;5036494;28;20261;-76
2022/10/25 00:24:55;;;;;;;3.60;2.70;;;16.20;99.90;;;;;;5035990;28;20671;-77
2022/10/25 00:27:22;;;;;;;5.53;3.00;;;16.00;99.90;;;;;;5041597;28;20202;-77
2022/10/25 00:29:51;;;;;;;3.87;2.80;;;16.20;99.90;;;;;;5028752;28;20195;-77
2022/10/25 00:32:20;;;;;;;4.97;3.10;;;16.20;99.90;;;;;;5038972;28;20191;-76
2022/10/25 00:34:48;;;;;;;4.57;2.95;;;16.20;99.90;;;;;;5042910;28;20193;-77
2022/10/25 00:37:15;;;;;;;4.05;2.92;;;16.20;99.90;;;;;;5029637;28;20650;-77
2022/10/25 00:39:42;;;;;;;4.75;2.78;;;16.20;99.90;;;;;;5040130;28;20221;-77
2022/10/25 00:42:15;;;;;;;2.80;2.50;;;16.20;99.90;;;;;;5045617;28;20209;-77
2022/10/25 00:44:55;;;;;;;6.97;3.40;;;16.20;99.90;;;;;;5040153;28;20202;-76
2022/10/25 00:47:40;;;;;;;4.93;3.00;;;16.20;99.90;;;;;;5037073;28;20192;-76
2022/10/25 00:50:28;;;;;;;4.03;3.17;;;16.20;99.90;;;;;;5046921;28;20188;-76
2022/10/25 00:53:00;;;;;;;3.37;3.07;;;16.20;99.90;;;;;;5033753;28;20200;-77
2022/10/25 00:55:28;;;;;;;4.13;3.20;;;16.20;99.90;;;;;;5042093;28;20200;-77
2022/10/25 00:57:59;;;;;;;3.60;3.30;;;16.10;99.90;;;;;;5017733;28;20204;-76
2022/10/25 01:00:27;;;;;;;3.60;3.07;;;16.20;99.90;;;;;;5043618;28;20589;-77
2022/10/25 01:02:55;;;;;;;2.97;2.70;;;16.20;99.90;;;;;;5042547;28;20311;-76
2022/10/25 01:05:23;;;;;;;3.10;2.80;;;16.20;99.90;;;;;;5041566;28;20688;-77
2022/10/25 01:07:51;;;;;;;4.03;2.93;;;16.20;99.90;;;;;;5042572;28;20190;-77
2022/10/25 01:10:18;;;;;;;5.13;3.37;;;16.20;99.90;;;;;;5031142;28;20283;-78
2022/10/25 01:12:45;;;;;;;4.60;3.23;;;16.20;99.90;;;;;;5039122;28;20577;-76
2022/10/25 01:15:13;;;;;;;3.27;2.77;;;16.20;99.90;;;;;;5039955;28;20347;-76
2022/10/25 01:17:50;;;;;;;3.03;2.73;;;16.20;99.90;;;;;;5041772;28;20199;-76
2022/10/25 01:20:43;;;;;;;3.13;2.67;;;16.10;99.90;;;;;;5038883;28;20704;-77
2022/10/25 01:23:24;;;;;;;3.03;2.38;;;16.10;99.90;;;;;;5038520;28;20568;-76
2022/10/25 01:26:18;;;;;;;4.70;3.20;;;16.10;99.90;;;;;;5039695;28;20200;-77
2022/10/25 01:29:05;;;;;;;4.03;3.23;;;16.10;99.90;;;;;;5037468;28;20200;-78
2022/10/25 01:31:39;;;;;;;4.47;3.30;;;16.20;99.90;;;;;;5044171;28;20278;-75
2022/10/25 01:34:15;;;;;;;4.80;3.10;;;16.10;99.90;;;;;;5039400;28;20261;-74
2022/10/25 01:36:50;;;;;;;5.07;3.13;;;16.10;99.90;;;;;;5046302;28;20257;-74
2022/10/25 01:39:25;;;;;;;5.83;3.23;;;16.10;99.90;;;;;;5038012;28;20211;-76
2022/10/25 01:42:01;;;;;;;3.10;2.80;;;16.10;99.90;;;;;;5029560;28;20506;-76
2022/10/25 01:44:35;;;;;;;5.57;3.33;;;16.10;99.90;;;;;;5040739;28;20197;-78
2022/10/25 01:47:08;;;;;;;4.90;2.80;;;16.20;99.90;;;;;;5032481;28;20283;-75
2022/10/25 01:49:41;;;;;;;4.53;2.90;;;16.10;99.90;;;;;;5032530;28;20204;-77
2022/10/25 01:52:08;;;;;;;3.20;2.80;;;16.20;99.90;;;;;;5034225;28;20210;-76
2022/10/25 01:54:36;;;;;;;3.80;3.27;;;16.20;99.90;;;;;;5027729;28;20201;-76
2022/10/25 01:57:29;;;;;;;3.60;3.10;;;16.10;99.90;;;;;;5038291;28;20266;-76
2022/10/25 02:00:07;;;;;;;3.50;3.20;;;16.20;99.90;;;;;;5018969;28;20273;-76
2022/10/25 02:03:06;;;;;;;5.00;2.53;;;16.10;99.90;;;;;;5036156;28;20258;-75
2022/10/25 02:05:43;;;;;;;4.73;3.13;;;16.10;99.90;;;;;;5037090;28;20212;-76
2022/10/25 02:08:20;;;;;;;4.07;3.23;;;16.10;99.90;;;;;;5039876;28;20227;-76
2022/10/25 02:10:53;;;;;;;5.10;2.87;;;16.10;99.90;;;;;;5040456;28;20191;-77
2022/10/25 02:13:30;;;;;;;3.10;2.67;;;16.10;99.90;;;;;;5037533;28;20257;-78
2022/10/25 02:16:02;;;;;;;4.20;2.30;;;16.10;99.90;;;;;;5023526;28;20312;-77
2022/10/25 02:18:35;;;;;;;4.33;3.17;;;16.10;99.90;;;;;;5037525;28;20198;-77
2022/10/25 02:21:05;;;;;;;4.80;3.17;;;16.10;99.90;;;;;;5039168;28;20267;-77
2022/10/25 02:23:34;;;;;;;6.43;3.10;;;16.10;99.90;;;;;;5020625;28;20190;-78
2022/10/25 02:26:03;;;;;;;3.47;2.43;;;16.10;99.90;;;;;;5019222;28;20228;-76
2022/10/25 02:28:32;;;;;;;4.20;2.70;;;16.10;99.90;;;;;;5022426;28;20199;-77
2022/10/25 02:31:01;;;;;;;5.73;2.80;;;16.10;99.90;;;;;;5036260;28;20189;-77
2022/10/25 02:33:28;;;;;;;5.30;2.70;;;16.10;99.90;;;;;;5042126;28;20657;-75
2022/10/25 02:36:08;;;;;;;2.33;2.13;;;16.10;99.90;;;;;;5030552;28;20214;-76
2022/10/25 02:38:36;;;;;;;6.40;2.60;;;16.10;99.90;;;;;;5034516;28;20211;-76
2022/10/25 02:41:05;;;;;;;4.03;2.50;;;16.10;99.90;;;;;;5036262;28;20221;-76
2022/10/25 02:43:32;;;;;;;2.40;2.23;;;16.10;99.90;;;;;;5028849;28;20242;-77
2022/10/25 02:46:00;;;;;;;2.50;2.17;;;16.10;99.90;;;;;;5017963;28;20215;-75
2022/10/25 02:48:27;;;;;;;3.40;2.40;;;16.10;99.90;;;;;;5030747;28;20242;-76
2022/10/25 02:50:54;;;;;;;3.27;2.40;;;16.10;99.90;;;;;;5038610;28;20709;-76
2022/10/25 02:53:23;;;;;;;5.53;3.03;;;16.10;99.90;;;;;;5032909;28;20292;-76
2022/10/25 02:56:00;;;;;;;3.07;2.70;;;16.10;99.90;;;;;;5040766;28;20196;-76
2022/10/25 02:58:30;;;;;;;2.60;2.40;;;16.10;99.90;;;;;;5031253;28;20205;-76
2022/10/25 03:00:58;;;;;;;2.92;2.42;;;16.10;99.90;;;;;;5035956;28;20202;-77
2022/10/25 03:03:26;;;;;;;2.70;2.50;;;16.10;99.90;;;;;;5038902;28;20197;-76
2022/10/25 03:05:53;;;;;;;5.47;2.83;;;16.10;99.90;;;;;;5036020;28;20296;-75
2022/10/25 03:08:22;;;;;;;4.87;2.80;;;16.10;99.90;;;;;;5028393;28;20200;-76
2022/10/25 03:10:49;;;;;;;6.83;2.80;;;16.10;99.90;;;;;;5018965;28;20204;-77
2022/10/25 03:13:17;;;;;;;4.80;2.47;;;16.10;99.90;;;;;;5030077;28;20207;-77
2022/10/25 03:15:45;;;;;;;2.70;2.47;;;16.10;99.90;;;;;;5027774;28;20231;-76
2022/10/25 03:18:13;;;;;;;5.00;2.70;;;16.00;99.90;;;;;;5039710;28;20286;-77
2022/10/25 03:20:40;;;;;;;5.70;3.20;;;16.10;99.90;;;;;;5036632;28;20227;-80
2022/10/25 03:23:08;;;;;;;3.07;2.70;;;16.10;99.90;;;;;;5040304;28;20659;-80
2022/10/25 03:25:36;;;;;;;2.67;2.47;;;16.10;99.90;;;;;;5042644;28;20194;-76
2022/10/25 03:28:04;;;;;;;4.50;3.10;;;16.00;99.90;;;;;;5028379;28;20201;-77
2022/10/25 03:30:31;;;;;;;2.57;2.37;;;16.00;99.90;;;;;;5039490;28;20679;-78
2022/10/25 03:32:59;;;;;;;4.33;2.77;;;16.00;99.90;;;;;;5034226;28;20235;-76
2022/10/25 03:35:27;;;;;;;2.83;2.63;;;16.00;99.90;;;;;;5034350;28;20202;-77
2022/10/25 03:37:55;;;;;;;2.40;2.30;;;16.00;99.90;;;;;;5029344;28;20204;-77
2022/10/25 03:40:22;;;;;;;3.83;2.55;;;16.00;99.90;;;;;;5041049;28;20216;-78
2022/10/25 03:42:51;;;;;;;3.13;2.80;;;16.00;99.90;;;;;;5038379;28;20201;-77
2022/10/25 03:45:18;;;;;;;3.70;3.27;;;16.00;99.90;;;;;;5035786;28;20286;-78
2022/10/25 03:47:47;;;;;;;4.17;2.97;;;16.00;99.90;;;;;;5033585;28;20215;-77
2022/10/25 03:50:15;;;;;;;4.33;2.30;;;16.00;99.90;;;;;;5035826;28;20221;-76
2022/10/25 03:52:42;;;;;;;4.43;2.90;;;16.00;99.90;;;;;;5036691;28;20302;-77
2022/10/25 03:55:10;;;;;;;5.33;3.40;;;16.00;99.90;;;;;;5020600;28;20234;-76
2022/10/25 03:57:37;;;;;;;4.40;3.27;;;16.00;99.90;;;;;;5033316;28;20200;-77
2022/10/25 04:00:07;;;;;;;4.33;3.50;;;15.90;99.90;;;;;;5034082;28;20204;-77
2022/10/25 04:02:38;;;;;;;3.20;2.90;;;15.90;99.90;;;;;;5041572;28;20672;-77
2022/10/25 04:05:06;;;;;;;3.10;2.73;;;15.90;99.90;;;;;;5038950;28;20691;-78
2022/10/25 04:07:34;;;;;;;4.70;2.90;;;15.80;99.90;;;;;;5028268;28;20225;-77
2022/10/25 04:10:01;;;;;;;3.77;2.80;;;15.90;99.90;;;;;;5040194;28;20278;-78
2022/10/25 04:12:28;;;;;;;3.70;2.80;;;15.90;99.90;;;;;;5033122;28;20639;-77
2022/10/25 04:14:55;;;;;;;3.70;2.83;;;15.90;99.90;;;;;;5032341;28;20293;-77
2022/10/25 04:17:24;;;;;;;3.13;2.40;;;15.90;99.90;;;;;;5036051;28;20594;-78
2022/10/25 04:19:51;;;;;;;3.03;2.77;;;15.90;99.90;;;;;;5020070;28;20218;-77
2022/10/25 04:22:18;;;;;;;2.77;2.50;;;15.90;99.90;;;;;;5026031;28;20218;-77
2022/10/25 04:24:46;;;;;;;2.97;2.67;;;15.90;99.90;;;;;;5037721;28;20209;-77
2022/10/25 04:27:16;;;;;;;6.43;3.40;;;15.90;99.90;;;;;;5039996;28;20187;-77
2022/10/25 04:29:43;;;;;;;4.03;3.10;;;15.90;99.90;;;;;;5038407;28;20209;-77
2022/10/25 04:32:10;;;;;;;3.30;3.00;;;15.90;99.90;;;;;;5032226;28;20746;-77
2022/10/25 04:34:39;;;;;;;3.83;2.70;;;15.90;99.90;;;;;;5036907;28;20196;-76
2022/10/25 04:37:06;;;;;;;2.70;2.50;;;15.90;99.90;;;;;;5043833;28;20201;-77
2022/10/25 04:39:33;;;;;;;2.63;2.43;;;15.90;99.90;;;;;;5038100;28;20258;-76
2022/10/25 04:42:01;;;;;;;2.40;2.20;;;15.90;99.90;;;;;;5042763;28;20999;-78
2022/10/25 04:44:28;;;;;;;2.77;2.00;;;15.90;99.90;;;;;;5030179;28;20208;-77
2022/10/25 04:46:55;;;;;;;3.07;2.50;;;15.90;99.90;;;;;;5037588;28;20323;-76
2022/10/25 04:49:22;;;;;;;2.57;2.37;;;15.90;99.90;;;;;;5037737;28;20198;-78
2022/10/25 04:51:52;;;;;;;2.53;2.33;;;15.90;99.90;;;;;;5025937;28;20196;-77
2022/10/25 04:54:19;;;;;;;4.10;2.40;;;15.90;99.90;;;;;;5013573;28;20203;-77
2022/10/25 04:56:46;;;;;;;3.67;2.40;;;15.90;99.90;;;;;;5025337;28;20729;-78
2022/10/25 04:59:14;;;;;;;3.33;2.80;;;15.90;99.90;;;;;;5028502;28;20645;-78
2022/10/25 05:01:41;;;;;;;2.93;2.63;;;15.90;99.90;;;;;;5034407;28;20238;-77
2022/10/25 05:04:08;;;;;;;3.17;2.40;;;15.90;99.90;;;;;;5032372;28;20677;-77
2022/10/25 05:06:35;;;;;;;3.87;2.60;;;15.90;99.90;;;;;;5023472;28;20199;-77
2022/10/25 05:09:04;;;;;;;7.67;2.90;;;15.90;99.90;;;;;;5028658;28;20209;-77
2022/10/25 05:11:32;;;;;;;4.53;2.97;;;15.90;99.90;;;;;;5032056;28;20207;-78
2022/10/25 05:13:59;;;;;;;4.73;3.10;;;15.80;99.90;;;;;;5037323;28;20295;-79
2022/10/25 05:16:26;;;;;;;3.93;2.47;;;15.90;99.90;;;;;;5037295;28;20211;-77
2022/10/25 05:18:55;;;;;;;2.63;2.37;;;15.80;99.90;;;;;;5027322;28;20246;-76
2022/10/25 05:21:25;;;;;;;2.37;2.17;;;15.80;99.90;;;;;;5042552;28;20207;-77
2022/10/25 05:23:52;;;;;;;3.03;2.60;;;15.80;99.90;;;;;;5041291;28;20194;-77
2022/10/25 05:26:21;;;;;;;2.50;2.30;;;15.80;99.90;;;;;;5040622;28;20192;-77
2022/10/25 05:28:51;;;;;;;7.80;3.50;;;15.80;99.90;;;;;;5040781;28;20196;-77
2022/10/25 05:31:20;;;;;;;4.93;2.97;;;15.80;99.90;;;;;;5041608;28;20287;-77
2022/10/25 05:33:50;;;;;;;2.90;2.63;;;15.80;99.90;;;;;;5043186;28;20235;-79
2022/10/25 05:36:17;;;;;;;2.80;2.43;;;15.70;99.90;;;;;;5037956;28;20653;-78
2022/10/25 05:38:45;;;;;;;2.60;2.50;;;15.70;99.90;;;;;;5037588;28;20207;-78
2022/10/25 05:41:14;;;;;;;3.27;2.97;;;15.80;99.90;;;;;;5033810;28;20220;-77
2022/10/25 05:43:42;;;;;;;4.97;2.70;;;15.80;99.90;;;;;;5042390;28;20222;-76
2022/10/25 05:46:13;;;;;;;2.80;2.60;;;15.50;99.90;;;;;;5040796;28;20191;-77
2022/10/25 05:48:40;;;;;;;2.70;2.50;;;15.80;99.90;;;;;;5037906;28;20660;-77
2022/10/25 05:51:10;;;;;;;5.13;3.10;;;15.70;99.90;;;;;;5035289;28;20209;-77
2022/10/25 05:53:37;;;;;;;3.77;3.30;;;15.70;99.90;;;;;;5043187;28;20210;-77
2022/10/25 05:56:05;;;;;;;3.27;2.90;;;15.60;99.90;;;;;;5042474;28;20195;-77
2022/10/25 05:58:32;;;;;;;9.47;4.30;;;15.70;99.90;;;;;;5029556;28;20204;-77
2022/10/25 06:01:01;;;;;;;6.40;3.53;;;15.60;99.90;;;;;;5037392;28;20573;-77
2022/10/25 06:03:28;;;;;;;4.97;3.73;;;15.60;99.90;;;;;;5024154;28;20291;-77
2022/10/25 06:06:00;;;;;;;3.83;3.30;;;15.50;99.90;;;;;;5029230;28;20215;-77
2022/10/25 06:08:30;;;;;;;5.93;4.10;;;15.60;99.90;;;;;;5036837;28;20274;-77
2022/10/25 06:11:01;;;;;;;12.23;4.90;;;15.80;99.90;;;;;;5037113;28;20188;-77
2022/10/25 06:13:28;;;;;;;10.60;4.90;;;15.50;99.90;;;;;;5041244;28;20205;-76
2022/10/25 06:15:56;;;;;;;6.37;4.43;;;15.50;99.90;;;;;;5039838;28;20216;-77
2022/10/25 06:18:25;;;;;;;5.43;3.50;;;15.40;99.90;;;;;;5039785;28;20198;-78
2022/10/25 06:20:52;;;;;;;6.07;3.97;;;15.50;99.90;;;;;;5037237;28;20567;-77
2022/10/25 06:23:19;;;;;;;5.57;3.60;;;15.40;99.90;;;;;;5031572;28;20222;-77
2022/10/25 06:25:46;;;;;;;9.77;4.13;;;15.40;99.90;;;;;;5026981;28;20199;-77
2022/10/25 06:28:14;;;;;;;6.67;3.77;;;15.40;99.90;;;;;;5030956;28;20216;-77
2022/10/25 06:30:41;;;;;;;4.27;3.87;;;15.40;99.90;;;;;;5039112;28;20229;-77
2022/10/25 06:33:08;;;;;;;7.43;4.83;;;15.40;99.90;;;;;;5027753;28;20230;-77
2022/10/25 06:35:37;;;;;;;5.70;3.93;;;15.40;99.90;;;;;;5022431;28;20203;-77
2022/10/25 06:38:04;;;;;;;6.77;5.13;;;15.40;99.90;;;;;;5034800;28;20207;-77
2022/10/25 06:40:31;;;;;;;9.93;5.33;;;15.40;99.90;;;;;;5040095;28;20757;-77
2022/10/25 06:42:58;;;;;;;7.60;5.70;;;15.40;99.90;;;;;;5036879;28;20199;-78
2022/10/25 06:45:26;;;;;;;11.90;6.97;;;15.30;99.90;;;;;;5033737;28;20210;-77
2022/10/25 06:47:53;;;;;;;8.70;6.07;;;15.40;99.90;;;;;;5041602;28;20671;-77
2022/10/25 06:50:20;;;;;;;9.43;5.60;;;15.40;99.90;;;;;;5036866;28;20286;-76
2022/10/25 06:52:49;;;;;;;8.20;6.17;;;15.40;99.90;;;;;;5029628;28;20506;-77
2022/10/25 06:55:16;;;;;;;8.40;5.37;;;15.40;99.90;;;;;;5043359;28;20261;-77
2022/10/25 06:57:43;;;;;;;8.50;4.97;;;15.40;99.90;;;;;;5032808;28;20789;-78
2022/10/25 07:00:12;;;;;;;7.57;5.00;;;15.40;99.90;;;;;;5034150;28;20199;-79
2022/10/25 07:02:39;;;;;;;8.37;5.40;;;15.50;99.90;;;;;;5027603;28;20321;-78
2022/10/25 07:05:07;;;;;;;6.67;5.20;;;15.50;99.90;;;;;;5038191;28;20235;-78
2022/10/25 07:07:35;;;;;;;7.43;5.13;;;15.50;99.90;;;;;;5036672;28;20203;-79
2022/10/25 07:10:03;;;;;;;10.33;5.00;;;15.50;99.90;;;;;;5025644;28;20214;-78
2022/10/25 07:12:36;;;;;;;7.43;4.77;;;15.50;99.90;;;;;;5041283;28;20269;-77
2022/10/25 07:15:04;;;;;;;6.53;4.03;;;15.50;99.90;;;;;;5032523;28;20278;-78
2022/10/25 07:17:31;;;;;;;4.10;3.53;;;15.60;99.90;;;;;;5035726;28;20198;-78
2022/10/25 07:19:59;;;;;;;6.70;3.83;;;15.60;99.90;;;;;;5045914;28;20232;-78
2022/10/25 07:22:26;;;;;;;4.83;3.60;;;15.60;99.90;;;;;;5034626;28;20212;-78
2022/10/25 07:24:53;;;;;;;7.93;4.97;;;15.60;99.90;;;;;;5037750;28;20619;-77
2022/10/25 07:27:22;;;;;;;7.97;4.63;;;15.60;99.90;;;;;;5041532;28;20191;-77
2022/10/25 07:29:49;;;;;;;4.53;4.00;;;15.60;99.90;;;;;;5037415;28;20190;-78
2022/10/25 07:32:16;;;;;;;5.73;4.27;;;15.60;99.90;;;;;;5036027;28;20210;-77
2022/10/25 07:34:44;;;;;;;3.93;3.60;;;15.70;99.90;;;;;;5039742;28;20194;-77
2022/10/25 07:37:11;;;;;;;3.13;2.80;;;15.70;99.90;;;;;;5043826;28;20786;-76
2022/10/25 07:39:38;;;;;;;4.30;3.13;;;15.70;99.90;;;;;;5035923;28;20269;-76
2022/10/25 07:42:05;;;;;;;3.37;2.70;;;15.80;99.90;;;;;;5035050;28;20223;-77
2022/10/25 07:44:34;;;;;;;3.80;3.00;;;15.80;99.90;;;;;;5034949;28;20194;-78
2022/10/25 07:47:02;;;;;;;2.70;2.50;;;15.90;99.90;;;;;;5036005;28;20307;-77
2022/10/25 07:49:29;;;;;;;5.03;2.90;;;15.90;99.90;;;;;;5031619;28;20202;-77
2022/10/25 07:51:56;;;;;;;4.77;2.70;;;15.90;99.90;;;;;;5033483;28;20221;-78
2022/10/25 07:54:23;;;;;;;3.20;2.10;;;16.00;99.90;;;;;;5034085;28;20191;-78
2022/10/25 07:56:50;;;;;;;2.20;2.00;;;16.00;99.90;;;;;;5035926;28;20203;-77
2022/10/25 07:59:18;;;;;;;2.23;1.77;;;16.10;99.90;;;;;;5041315;28;20294;-78
2022/10/25 08:01:46;;;;;;;3.13;2.17;;;16.10;99.90;;;;;;5027274;28;20586;-78
2022/10/25 08:04:14;;;;;;;3.30;2.50;;;16.10;99.90;;;;;;5016384;28;20555;-77
2022/10/25 08:06:41;;;;;;;3.07;2.40;;;16.20;99.90;;;;;;5023653;28;20233;-77
2022/10/25 08:09:08;;;;;;;15.77;6.87;;;16.20;99.90;;;;;;5030261;28;20667;-77
2022/10/25 08:11:38;;;;;;;17.43;8.73;;;16.30;99.90;;;;;;5036767;28;20195;-77
2022/10/25 08:14:06;;;;;;;10.00;6.03;;;16.30;99.90;;;;;;5018772;28;20696;-77
2022/10/25 08:16:33;;;;;;;11.57;5.80;;;16.30;99.90;;;;;;5015496;28;20285;-77
2022/10/25 08:19:01;;;;;;;6.50;3.97;;;16.30;99.90;;;;;;5016911;28;20189;-77
2022/10/25 08:21:29;;;;;;;7.03;3.97;;;16.30;99.90;;;;;;5031468;28;20221;-77
2022/10/25 08:23:56;;;;;;;6.00;3.07;;;16.40;99.90;;;;;;5021259;28;20205;-77
2022/10/25 08:26:25;;;;;;;2.73;2.50;;;16.40;99.90;;;;;;5024052;28;20236;-77
2022/10/25 08:28:53;;;;;;;2.70;2.50;;;16.40;99.90;;;;;;5023642;28;20579;-76
2022/10/25 08:31:20;;;;;;;1.93;1.80;;;16.50;99.90;;;;;;5019836;28;20242;-77
2022/10/25 08:33:47;;;;;;;2.75;2.25;;;16.50;99.90;;;;;;5017637;28;20598;-77
2022/10/25 08:36:16;;;;;;;2.57;1.97;;;16.50;99.90;;;;;;5022188;28;20268;-77
2022/10/25 08:38:43;;;;;;;3.00;2.30;;;16.60;99.90;;;;;;5023442;28;20205;-78
2022/10/25 08:41:17;;;;;;;3.13;2.47;;;16.60;99.90;;;;;;5016793;28;20241;-78
2022/10/25 08:44:12;;;;;;;3.30;2.08;;;16.70;99.90;;;;;;5025814;28;20262;-78
2022/10/25 08:46:45;;;;;;;1.90;1.70;;;16.70;99.90;;;;;;5012126;28;20218;-78
2022/10/25 08:49:19;;;;;;;3.37;1.77;;;16.70;99.90;;;;;;5017400;28;20206;-78
2022/10/25 08:51:50;;;;;;;2.63;1.80;;;16.80;99.90;;;;;;5018943;28;20217;-78
2022/10/25 08:54:29;;;;;;;2.00;1.30;;;16.80;99.90;;;;;;5037862;28;20214;-79
2022/10/25 08:57:06;;;;;;;3.17;1.63;;;16.80;99.90;;;;;;5024755;28;20224;-80
2022/10/25 08:59:37;;;;;;;2.65;1.63;;;16.80;99.90;;;;;;5021515;28;20227;-78
2022/10/25 09:02:16;;;;;;;1.40;1.30;;;16.90;99.90;;;;;;5028682;28;20238;-80
2022/10/25 09:04:43;;;;;;;1.70;1.42;;;16.90;99.90;;;;;;5036989;28;20204;-80
2022/10/25 09:07:22;;;;;;;2.00;1.25;;;17.00;99.90;;;;;;5035890;28;20285;-77
2022/10/25 09:09:57;;;;;;;7.68;1.50;;;16.90;99.90;;;;;;5035448;28;20257;-77
2022/10/25 09:12:38;;;;;;;1.88;1.50;;;17.00;99.90;;;;;;5035727;28;20264;-77
2022/10/25 09:15:14;;;;;;;2.67;1.42;;;17.00;99.90;;;;;;5025246;28;20224;-81
2022/10/25 09:17:47;;;;;;;1.38;1.27;;;17.10;99.90;;;;;;5037516;28;20196;-77
2022/10/25 09:20:20;;;;;;;3.53;1.77;;;17.10;99.90;;;;;;5041480;28;20213;-77
2022/10/25 09:22:54;;;;;;;0.93;0.93;;;17.10;99.90;;;;;;5025367;28;20609;-76
2022/10/25 09:25:27;;;;;;;2.27;1.10;;;17.20;99.90;;;;;;5039245;28;20666;-78
2022/10/25 09:28:00;;;;;;;2.03;1.40;;;17.20;99.90;;;;;;5042816;28;20201;-78
2022/10/25 09:30:34;;;;;;;3.33;1.73;;;17.30;99.90;;;;;;5029630;28;20205;-76
2022/10/25 09:33:09;;;;;;;1.25;1.15;;;17.30;99.90;;;;;;5042203;28;20217;-79
2022/10/25 09:35:42;;;;;;;2.17;1.25;;;17.40;99.90;;;;;;5040418;28;20292;-78
2022/10/25 09:38:15;;;;;;;1.17;1.05;;;17.30;99.90;;;;;;5039302;28;20518;-80
2022/10/25 09:40:48;;;;;;;1.55;1.30;;;17.70;99.90;;;;;;5024832;28;20213;-81
2022/10/25 09:43:20;;;;;;;4.90;1.50;;;17.40;99.90;;;;;;5038316;28;20217;-77
2022/10/25 09:45:50;;;;;;;0.95;0.95;;;17.40;99.90;;;;;;5035961;28;20190;-77
2022/10/25 09:48:26;;;;;;;3.20;0.90;;;17.50;99.90;;;;;;5038727;28;20217;-78
2022/10/25 09:51:01;;;;;;;3.88;1.10;;;17.50;99.90;;;;;;5032908;28;20206;-78
2022/10/25 09:53:39;;;;;;;0.85;0.85;;;17.60;99.90;;;;;;5040800;28;20259;-79
2022/10/25 09:56:06;;;;;;;0.80;0.80;;;17.90;99.90;;;;;;5037797;28;20191;-79
2022/10/25 09:58:38;;;;;;;1.58;0.95;;;18.10;99.90;;;;;;5031551;28;20194;-77
2022/10/25 10:01:11;;;;;;;1.30;1.20;;;18.80;99.90;;;;;;5043871;28;20202;-79
2022/10/25 10:03:40;;;;;;;3.60;1.27;;;18.30;99.90;;;;;;5037617;28;20194;-76
2022/10/25 10:06:21;;;;;;;2.83;1.48;;;18.20;99.90;;;;;;5045626;28;20209;-77
2022/10/25 10:08:53;;;;;;;1.45;1.20;;;18.20;99.90;;;;;;5025604;28;20292;-77
2022/10/25 10:11:21;;;;;;;1.40;1.30;;;18.10;99.90;;;;;;5039616;28;20209;-77
2022/10/25 10:13:52;;;;;;;2.55;1.42;;;18.00;99.90;;;;;;5042891;28;20221;-76
2022/10/25 10:16:23;;;;;;;1.20;1.10;;;18.00;99.90;;;;;;5037555;28;20281;-76
2022/10/25 10:19:14;;;;;;;2.78;1.27;;;17.90;99.90;;;;;;5039684;28;20219;-76
2022/10/25 10:21:43;;;;;;;2.03;1.40;;;17.90;99.90;;;;;;5046021;28;20220;-77
2022/10/25 10:24:18;;;;;;;2.80;1.20;;;17.90;99.90;;;;;;5038172;28;20206;-76
2022/10/25 10:26:50;;;;;;;1.15;1.05;;;17.90;99.90;;;;;;5026557;28;20631;-81
2022/10/25 10:29:22;;;;;;;2.97;1.33;;;17.90;99.90;;;;;;5038548;28;20206;-80
2022/10/25 10:31:51;;;;;;;2.88;1.20;;;17.80;99.90;;;;;;5037510;28;20202;-76
2022/10/25 10:34:27;;;;;;;2.53;1.23;;;17.80;99.90;;;;;;5041851;28;20209;-76
2022/10/25 10:37:07;;;;;;;1.48;1.30;;;17.80;99.90;;;;;;5027735;28;20240;-77
2022/10/25 10:39:47;;;;;;;1.65;1.27;;;17.80;99.90;;;;;;5041539;28;20210;-77
2022/10/25 10:42:16;;;;;;;2.60;1.40;;;17.90;99.90;;;;;;5036597;28;20303;-79
2022/10/25 10:45:01;;;;;;;1.15;1.08;;;17.90;99.90;;;;;;5030886;28;20193;-78
2022/10/25 10:47:34;;;;;;;0.98;0.80;;;17.90;99.90;;;;;;5038762;28;20264;-77
2022/10/25 10:50:02;;;;;;;1.55;1.17;;;18.00;99.90;;;;;;5041166;28;20283;-77
2022/10/25 10:52:36;;;;;;;1.20;0.80;;;18.00;99.90;;;;;;5036536;28;20233;-78
2022/10/25 10:55:15;;;;;;;1.80;1.27;;;18.10;99.90;;;;;;5044500;28;20189;-79
2022/10/25 10:57:45;;;;;;;1.42;0.90;;;18.10;99.90;;;;;;5041806;28;20287;-78
2022/10/25 11:00:21;;;;;;;1.10;1.00;;;18.10;99.90;;;;;;5033153;28;20345;-80
2022/10/25 11:02:49;;;;;;;1.77;1.10;;;18.10;99.90;;;;;;5044031;28;20268;-78
2022/10/25 11:05:26;;;;;;;0.80;0.80;;;18.10;99.90;;;;;;5043879;28;20277;-78
2022/10/25 11:07:56;;;;;;;1.73;1.10;;;18.10;99.90;;;;;;5050882;28;20186;-78
2022/10/25 11:10:29;;;;;;;2.35;1.20;;;18.10;99.90;;;;;;5040158;28;20202;-78
2022/10/25 11:13:08;;;;;;;2.90;1.05;;;18.10;99.90;;;;;;5042437;28;20230;-78
2022/10/25 11:15:50;;;;;;;0.80;0.80;;;17.60;99.90;;;;;;5039433;28;20263;-78
2022/10/25 11:18:25;;;;;;;0.93;0.93;;;18.10;99.90;;;;;;5037491;28;20282;-77
2022/10/25 11:21:04;;;;;;;1.20;0.90;;;18.10;99.90;;;;;;5041211;28;20226;-77
2022/10/25 11:23:42;;;;;;;1.05;0.93;;;18.10;99.90;;;;;;5039584;28;20309;-77
2022/10/25 11:26:18;;;;;;;1.50;1.15;;;18.10;99.90;;;;;;5038091;28;20286;-77
2022/10/25 11:28:53;;;;;;;2.67;1.40;;;18.10;99.90;;;;;;5038324;28;20197;-77
2022/10/25 11:31:27;;;;;;;1.20;1.15;;;18.10;99.90;;;;;;5022869;28;20678;-78
2022/10/25 11:34:11;;;;;;;1.17;1.10;;;18.10;99.90;;;;;;5035874;28;20194;-76
2022/10/25 11:36:50;;;;;;;1.83;1.45;;;18.10;99.90;;;;;;5035751;28;20218;-77
2022/10/25 11:39:45;;;;;;;1.75;1.30;;;18.00;99.90;;;;;;5038645;28;20194;-78
2022/10/25 11:42:30;;;;;;;1.80;1.50;;;18.00;99.90;;;;;;5012573;28;20693;-77
2022/10/25 11:45:40;;;;;;;2.72;1.50;;;18.00;99.90;;;;;;5036952;28;20198;-76
2022/10/25 11:48:46;;;;;;;1.48;1.38;;;18.00;99.90;;;;;;5035811;28;20206;-77
2022/10/25 11:51:24;;;;;;;2.80;1.40;;;18.10;99.90;;;;;;4962063;28;20193;-77
2022/10/25 11:54:16;;;;;;;1.85;1.40;;;18.20;99.90;;;;;;5026047;28;20206;-81
2022/10/25 11:56:57;;;;;;;6.88;1.40;;;18.20;99.90;;;;;;5036950;28;20277;-77
2022/10/25 11:59:38;;;;;;;2.58;1.60;;;18.20;99.90;;;;;;5041973;28;20642;-79
2022/10/25 12:02:20;;;;;;;1.35;1.25;;;18.10;99.90;;;;;;5022867;28;20399;-79
2022/10/25 12:05:02;;;;;;;3.05;1.30;;;18.10;99.90;;;;;;5042618;28;20188;-77
2022/10/25 12:07:38;;;;;;;1.58;1.30;;;18.10;99.90;;;;;;5014041;28;20199;-80
2022/10/25 12:10:15;;;;;;;0.98;0.98;;;18.30;99.90;;;;;;5018717;28;20194;-79
2022/10/25 12:12:47;;;;;;;1.30;1.20;;;18.00;99.90;;;;;;5035176;28;20189;-78
2022/10/25 12:15:29;;;;;;;2.42;1.15;;;19.20;99.90;;;;;;5039280;28;20194;-80
2022/10/25 12:17:56;;;;;;;1.20;1.10;;;18.00;99.90;;;;;;5033412;28;20756;-78
2022/10/25 12:20:27;;;;;;;1.20;1.10;;;18.00;99.90;;;;;;5037125;28;20659;-78
2022/10/25 12:22:58;;;;;;;1.00;1.00;;;18.00;99.90;;;;;;5034809;28;20202;-78
2022/10/25 12:25:29;;;;;;;1.60;1.17;;;18.00;99.90;;;;;;5038461;28;20191;-78
2022/10/25 12:28:03;;;;;;;1.42;1.33;;;18.00;99.90;;;;;;5042062;28;20202;-78
2022/10/25 12:30:34;;;;;;;1.20;1.10;;;18.00;99.90;;;;;;5042541;28;20277;-78
2022/10/25 12:33:11;;;;;;;1.77;1.13;;;18.00;99.90;;;;;;5029963;28;20278;-78
2022/10/25 12:35:46;;;;;;;1.25;1.05;;;18.00;99.90;;;;;;5029939;28;20673;-78
2022/10/25 12:38:20;;;;;;;1.58;1.38;;;18.00;99.90;;;;;;5028378;28;20212;-77
2022/10/25 12:40:49;;;;;;;1.52;1.10;;;18.00;99.90;;;;;;5043141;28;20186;-77
2022/10/25 12:43:21;;;;;;;3.05;1.02;;;18.00;99.90;;;;;;5033273;28;20697;-77
2022/10/25 12:46:21;;;;;;;2.45;0.98;;;17.90;99.90;;;;;;5040808;28;20186;-80
2022/10/25 12:49:14;;;;;;;1.65;1.10;;;17.90;99.90;;;;;;5036223;28;20693;-78
2022/10/25 12:51:55;;;;;;;1.95;1.20;;;17.90;99.90;;;;;;5037118;28;20202;-79
2022/10/25 12:54:41;;;;;;;2.83;1.10;;;17.80;99.90;;;;;;5040533;28;20285;-78
2022/10/25 12:57:19;;;;;;;1.00;1.00;;;17.90;99.90;;;;;;5043527;28;20299;-78
2022/10/25 13:00:01;;;;;;;1.05;0.95;;;17.80;99.90;;;;;;5046780;28;20245;-79
2022/10/25 13:03:19;;;;;;;2.13;0.90;;;17.80;99.90;;;;;;5045129;28;20641;-77
2022/10/25 13:06:20;;;;;;;1.10;0.95;;;17.80;99.90;;;;;;5041749;28;20190;-77
2022/10/25 13:08:49;;;;;;;2.20;1.05;;;17.80;99.90;;;;;;5044045;28;20262;-78